sensor_id;sensor_type;location;lat;lon;timestamp;P1;durP1;ratioP1;P2;durP2;ratioP2
35074;SDS011;21260;34.984;32.490;2022-12-18T00:01:24;29.87;;;23.47;;
35074;SDS011;21260;34.984;32.490;2022-12-18T00:04:05;32.30;;;22.57;;
35074;SDS011;21260;34.984;32.490;2022-12-18T00:06:40;32.63;;;23.13;;
35074;SDS011;21260;34.984;32.490;2022-12-18T00:09:06;32.10;;;23.00;;
35074;SDS011;21260;34.984;32.490;2022-12-18T00:11:34;30.50;;;23.50;;
35074;SDS011;21260;34.984;32.490;2022-12-18T00:14:00;29.93;;;23.20;;
35074;SDS011;21260;34.984;32.490;2022-12-18T00:16:27;29.50;;;23.10;;
35074;SDS011;21260;34.984;32.490;2022-12-18T00:19:00;30.93;;;22.70;;
35074;SDS011;21260;34.984;32.490;2022-12-18T00:21:28;28.83;;;21.93;;
35074;SDS011;21260;34.984;32.490;2022-12-18T00:23:57;32.10;;;23.13;;
35074;SDS011;21260;34.984;32.490;2022-12-18T00:26:27;28.37;;;22.17;;
35074;SDS011;21260;34.984;32.490;2022-12-18T00:29:01;30.37;;;22.43;;
35074;SDS011;21260;34.984;32.490;2022-12-18T00:31:35;27.47;;;21.30;;
35074;SDS011;21260;34.984;32.490;2022-12-18T00:34:03;28.87;;;22.20;;
35074;SDS011;21260;34.984;32.490;2022-12-18T00:36:31;31.27;;;21.87;;
35074;SDS011;21260;34.984;32.490;2022-12-18T00:38:59;27.10;;;21.10;;
35074;SDS011;21260;34.984;32.490;2022-12-18T00:41:30;34.47;;;22.20;;
35074;SDS011;21260;34.984;32.490;2022-12-18T00:44:16;28.40;;;20.90;;
35074;SDS011;21260;34.984;32.490;2022-12-18T00:46:45;29.77;;;22.50;;
35074;SDS011;21260;34.984;32.490;2022-12-18T00:49:13;27.30;;;21.20;;
35074;SDS011;21260;34.984;32.490;2022-12-18T00:51:42;28.23;;;19.80;;
35074;SDS011;21260;34.984;32.490;2022-12-18T00:54:08;25.20;;;20.23;;
35074;SDS011;21260;34.984;32.490;2022-12-18T00:56:36;29.17;;;19.97;;
35074;SDS011;21260;34.984;32.490;2022-12-18T00:59:04;26.77;;;19.73;;
35074;SDS011;21260;34.984;32.490;2022-12-18T01:01:31;29.00;;;20.70;;
35074;SDS011;21260;34.984;32.490;2022-12-18T01:03:58;29.27;;;20.87;;
35074;SDS011;21260;34.984;32.490;2022-12-18T01:06:27;26.47;;;21.20;;
35074;SDS011;21260;34.984;32.490;2022-12-18T01:08:54;31.20;;;21.97;;
35074;SDS011;21260;34.984;32.490;2022-12-18T01:11:22;29.83;;;21.20;;
35074;SDS011;21260;34.984;32.490;2022-12-18T01:13:48;29.93;;;20.00;;
35074;SDS011;21260;34.984;32.490;2022-12-18T01:16:19;29.53;;;20.73;;
35074;SDS011;21260;34.984;32.490;2022-12-18T01:18:46;26.23;;;20.10;;
35074;SDS011;21260;34.984;32.490;2022-12-18T01:21:14;31.10;;;21.63;;
35074;SDS011;21260;34.984;32.490;2022-12-18T01:23:45;29.67;;;20.17;;
35074;SDS011;21260;34.984;32.490;2022-12-18T01:26:15;26.97;;;20.10;;
35074;SDS011;21260;34.984;32.490;2022-12-18T01:28:42;29.53;;;20.33;;
35074;SDS011;21260;34.984;32.490;2022-12-18T01:33:50;27.97;;;19.57;;
35074;SDS011;21260;34.984;32.490;2022-12-18T01:38:50;26.37;;;20.03;;
35074;SDS011;21260;34.984;32.490;2022-12-18T01:41:24;25.10;;;20.23;;
35074;SDS011;21260;34.984;32.490;2022-12-18T01:47:27;22.43;;;17.77;;
35074;SDS011;21260;34.984;32.490;2022-12-18T01:55:51;18.40;;;15.23;;
35074;SDS011;21260;34.984;32.490;2022-12-18T01:58:23;20.50;;;16.53;;
35074;SDS011;21260;34.984;32.490;2022-12-18T02:01:28;21.83;;;15.33;;
35074;SDS011;21260;34.984;32.490;2022-12-18T02:03:56;21.77;;;15.70;;
35074;SDS011;21260;34.984;32.490;2022-12-18T02:06:52;20.93;;;15.60;;
35074;SDS011;21260;34.984;32.490;2022-12-18T02:09:29;17.23;;;14.97;;
35074;SDS011;21260;34.984;32.490;2022-12-18T02:12:25;18.60;;;14.83;;
35074;SDS011;21260;34.984;32.490;2022-12-18T02:17:53;21.30;;;15.23;;
35074;SDS011;21260;34.984;32.490;2022-12-18T02:29:25;22.63;;;17.03;;
35074;SDS011;21260;34.984;32.490;2022-12-18T02:32:14;20.27;;;16.17;;
35074;SDS011;21260;34.984;32.490;2022-12-18T02:34:46;23.00;;;16.60;;
35074;SDS011;21260;34.984;32.490;2022-12-18T02:37:16;25.57;;;16.67;;
35074;SDS011;21260;34.984;32.490;2022-12-18T02:39:46;21.60;;;15.90;;
35074;SDS011;21260;34.984;32.490;2022-12-18T02:42:18;20.63;;;14.67;;
35074;SDS011;21260;34.984;32.490;2022-12-18T02:44:46;16.77;;;13.70;;
35074;SDS011;21260;34.984;32.490;2022-12-18T02:47:17;18.90;;;15.00;;
35074;SDS011;21260;34.984;32.490;2022-12-18T02:49:59;21.93;;;13.47;;
35074;SDS011;21260;34.984;32.490;2022-12-18T03:01:28;15.37;;;12.03;;
35074;SDS011;21260;34.984;32.490;2022-12-18T03:04:29;14.60;;;10.97;;
35074;SDS011;21260;34.984;32.490;2022-12-18T03:07:08;12.77;;;9.97;;
35074;SDS011;21260;34.984;32.490;2022-12-18T03:09:44;13.13;;;10.23;;
35074;SDS011;21260;34.984;32.490;2022-12-18T03:15:08;12.30;;;10.00;;
35074;SDS011;21260;34.984;32.490;2022-12-18T03:17:51;13.77;;;9.83;;
35074;SDS011;21260;34.984;32.490;2022-12-18T03:20:24;12.40;;;9.10;;
35074;SDS011;21260;34.984;32.490;2022-12-18T03:22:57;10.10;;;8.40;;
35074;SDS011;21260;34.984;32.490;2022-12-18T03:25:33;8.87;;;7.83;;
35074;SDS011;21260;34.984;32.490;2022-12-18T03:28:09;11.13;;;8.73;;
35074;SDS011;21260;34.984;32.490;2022-12-18T03:30:46;11.07;;;7.97;;
35074;SDS011;21260;34.984;32.490;2022-12-18T03:33:24;8.77;;;7.70;;
35074;SDS011;21260;34.984;32.490;2022-12-18T03:35:59;11.87;;;8.30;;
35074;SDS011;21260;34.984;32.490;2022-12-18T03:38:26;9.70;;;8.33;;
35074;SDS011;21260;34.984;32.490;2022-12-18T03:49:22;11.23;;;8.60;;
35074;SDS011;21260;34.984;32.490;2022-12-18T03:51:53;13.50;;;9.37;;
35074;SDS011;21260;34.984;32.490;2022-12-18T03:54:38;13.10;;;10.27;;
35074;SDS011;21260;34.984;32.490;2022-12-18T03:57:18;13.77;;;9.80;;
35074;SDS011;21260;34.984;32.490;2022-12-18T03:59:51;11.77;;;9.97;;
35074;SDS011;21260;34.984;32.490;2022-12-18T04:02:25;12.27;;;10.27;;
35074;SDS011;21260;34.984;32.490;2022-12-18T04:04:52;12.53;;;10.03;;
35074;SDS011;21260;34.984;32.490;2022-12-18T04:07:23;14.83;;;10.53;;
35074;SDS011;21260;34.984;32.490;2022-12-18T04:09:51;12.73;;;10.30;;
35074;SDS011;21260;34.984;32.490;2022-12-18T04:12:26;12.30;;;9.37;;
35074;SDS011;21260;34.984;32.490;2022-12-18T04:14:55;12.53;;;10.00;;
35074;SDS011;21260;34.984;32.490;2022-12-18T04:17:22;11.03;;;9.57;;
35074;SDS011;21260;34.984;32.490;2022-12-18T04:19:49;14.60;;;9.97;;
35074;SDS011;21260;34.984;32.490;2022-12-18T04:22:15;11.30;;;9.70;;
35074;SDS011;21260;34.984;32.490;2022-12-18T04:24:42;14.00;;;9.90;;
35074;SDS011;21260;34.984;32.490;2022-12-18T04:27:08;14.47;;;10.23;;
35074;SDS011;21260;34.984;32.490;2022-12-18T04:29:35;11.80;;;10.33;;
35074;SDS011;21260;34.984;32.490;2022-12-18T04:32:01;16.00;;;10.83;;
35074;SDS011;21260;34.984;32.490;2022-12-18T04:34:27;14.50;;;11.50;;
35074;SDS011;21260;34.984;32.490;2022-12-18T04:36:53;16.70;;;12.00;;
35074;SDS011;21260;34.984;32.490;2022-12-18T04:39:20;15.33;;;12.30;;
35074;SDS011;21260;34.984;32.490;2022-12-18T04:41:46;15.60;;;12.40;;
35074;SDS011;21260;34.984;32.490;2022-12-18T04:44:13;16.57;;;13.33;;
35074;SDS011;21260;34.984;32.490;2022-12-18T04:46:39;18.03;;;13.10;;
35074;SDS011;21260;34.984;32.490;2022-12-18T04:49:05;17.50;;;13.63;;
35074;SDS011;21260;34.984;32.490;2022-12-18T04:51:32;16.43;;;13.10;;
35074;SDS011;21260;34.984;32.490;2022-12-18T04:53:58;14.83;;;13.23;;
35074;SDS011;21260;34.984;32.490;2022-12-18T04:56:24;18.10;;;13.57;;
35074;SDS011;21260;34.984;32.490;2022-12-18T04:58:51;16.77;;;12.43;;
35074;SDS011;21260;34.984;32.490;2022-12-18T05:01:19;17.37;;;13.90;;
35074;SDS011;21260;34.984;32.490;2022-12-18T05:03:47;16.30;;;12.53;;
35074;SDS011;21260;34.984;32.490;2022-12-18T05:06:14;16.73;;;13.00;;
35074;SDS011;21260;34.984;32.490;2022-12-18T05:08:40;16.90;;;12.87;;
35074;SDS011;21260;34.984;32.490;2022-12-18T05:11:11;16.83;;;12.37;;
35074;SDS011;21260;34.984;32.490;2022-12-18T05:13:43;17.37;;;11.97;;
35074;SDS011;21260;34.984;32.490;2022-12-18T05:16:12;14.07;;;11.00;;
35074;SDS011;21260;34.984;32.490;2022-12-18T05:18:39;18.50;;;12.13;;
35074;SDS011;21260;34.984;32.490;2022-12-18T05:21:06;15.53;;;12.67;;
35074;SDS011;21260;34.984;32.490;2022-12-18T05:23:33;17.43;;;12.27;;
35074;SDS011;21260;34.984;32.490;2022-12-18T05:26:04;13.70;;;11.40;;
35074;SDS011;21260;34.984;32.490;2022-12-18T05:28:33;13.57;;;10.87;;
35074;SDS011;21260;34.984;32.490;2022-12-18T05:31:02;14.33;;;10.40;;
35074;SDS011;21260;34.984;32.490;2022-12-18T05:33:31;16.37;;;10.83;;
35074;SDS011;21260;34.984;32.490;2022-12-18T05:36:07;12.20;;;8.83;;
35074;SDS011;21260;34.984;32.490;2022-12-18T05:38:35;11.80;;;10.13;;
35074;SDS011;21260;34.984;32.490;2022-12-18T05:41:04;10.80;;;8.53;;
35074;SDS011;21260;34.984;32.490;2022-12-18T05:43:33;10.93;;;9.23;;
35074;SDS011;21260;34.984;32.490;2022-12-18T05:46:05;11.57;;;8.90;;
35074;SDS011;21260;34.984;32.490;2022-12-18T05:48:38;14.17;;;9.50;;
35074;SDS011;21260;34.984;32.490;2022-12-18T05:51:06;10.50;;;9.40;;
35074;SDS011;21260;34.984;32.490;2022-12-18T05:53:35;11.23;;;9.30;;
35074;SDS011;21260;34.984;32.490;2022-12-18T05:56:04;13.33;;;8.80;;
35074;SDS011;21260;34.984;32.490;2022-12-18T05:58:34;10.67;;;8.40;;
35074;SDS011;21260;34.984;32.490;2022-12-18T06:01:08;9.30;;;7.83;;
35074;SDS011;21260;34.984;32.490;2022-12-18T06:03:41;9.20;;;7.97;;
35074;SDS011;21260;34.984;32.490;2022-12-18T06:06:24;9.90;;;8.07;;
35074;SDS011;21260;34.984;32.490;2022-12-18T06:08:53;11.83;;;7.67;;
35074;SDS011;21260;34.984;32.490;2022-12-18T06:11:23;12.10;;;7.83;;
35074;SDS011;21260;34.984;32.490;2022-12-18T06:13:53;10.63;;;8.10;;
35074;SDS011;21260;34.984;32.490;2022-12-18T06:16:20;10.10;;;7.77;;
35074;SDS011;21260;34.984;32.490;2022-12-18T06:18:47;13.67;;;8.40;;
35074;SDS011;21260;34.984;32.490;2022-12-18T06:21:14;10.23;;;7.53;;
35074;SDS011;21260;34.984;32.490;2022-12-18T06:23:44;9.97;;;7.80;;
35074;SDS011;21260;34.984;32.490;2022-12-18T06:26:11;8.17;;;7.27;;
35074;SDS011;21260;34.984;32.490;2022-12-18T06:28:38;10.97;;;6.97;;
35074;SDS011;21260;34.984;32.490;2022-12-18T06:31:05;9.67;;;7.53;;
35074;SDS011;21260;34.984;32.490;2022-12-18T06:33:32;9.40;;;7.37;;
35074;SDS011;21260;34.984;32.490;2022-12-18T06:36:07;8.13;;;6.60;;
35074;SDS011;21260;34.984;32.490;2022-12-18T06:38:38;9.17;;;7.30;;
35074;SDS011;21260;34.984;32.490;2022-12-18T06:41:07;8.67;;;7.03;;
35074;SDS011;21260;34.984;32.490;2022-12-18T06:43:40;8.53;;;6.50;;
35074;SDS011;21260;34.984;32.490;2022-12-18T06:46:09;9.70;;;6.47;;
35074;SDS011;21260;34.984;32.490;2022-12-18T06:48:37;8.43;;;6.10;;
35074;SDS011;21260;34.984;32.490;2022-12-18T06:51:03;6.50;;;5.53;;
35074;SDS011;21260;34.984;32.490;2022-12-18T06:53:31;6.73;;;5.87;;
35074;SDS011;21260;34.984;32.490;2022-12-18T06:56:02;10.47;;;5.73;;
35074;SDS011;21260;34.984;32.490;2022-12-18T06:58:31;6.40;;;5.47;;
35074;SDS011;21260;34.984;32.490;2022-12-18T07:01:05;6.83;;;5.60;;
35074;SDS011;21260;34.984;32.490;2022-12-18T07:03:35;6.23;;;5.30;;
35074;SDS011;21260;34.984;32.490;2022-12-18T07:06:04;6.43;;;5.47;;
35074;SDS011;21260;34.984;32.490;2022-12-18T07:08:31;6.87;;;5.97;;
35074;SDS011;21260;34.984;32.490;2022-12-18T07:10:58;7.33;;;6.50;;
35074;SDS011;21260;34.984;32.490;2022-12-18T07:13:29;7.80;;;7.00;;
35074;SDS011;21260;34.984;32.490;2022-12-18T07:16:02;9.30;;;6.77;;
35074;SDS011;21260;34.984;32.490;2022-12-18T07:18:43;8.47;;;7.30;;
35074;SDS011;21260;34.984;32.490;2022-12-18T07:21:11;9.60;;;8.37;;
35074;SDS011;21260;34.984;32.490;2022-12-18T07:23:42;10.07;;;8.60;;
35074;SDS011;21260;34.984;32.490;2022-12-18T07:26:12;10.50;;;8.63;;
35074;SDS011;21260;34.984;32.490;2022-12-18T07:28:41;9.70;;;8.00;;
35074;SDS011;21260;34.984;32.490;2022-12-18T07:31:11;11.47;;;8.13;;
35074;SDS011;21260;34.984;32.490;2022-12-18T07:33:44;10.90;;;8.27;;
35074;SDS011;21260;34.984;32.490;2022-12-18T07:36:11;10.37;;;7.80;;
35074;SDS011;21260;34.984;32.490;2022-12-18T07:38:39;8.87;;;7.97;;
35074;SDS011;21260;34.984;32.490;2022-12-18T07:41:07;9.93;;;8.27;;
35074;SDS011;21260;34.984;32.490;2022-12-18T07:43:38;11.00;;;7.63;;
35074;SDS011;21260;34.984;32.490;2022-12-18T07:46:05;12.93;;;8.63;;
35074;SDS011;21260;34.984;32.490;2022-12-18T07:48:34;12.97;;;9.23;;
35074;SDS011;21260;34.984;32.490;2022-12-18T07:51:00;13.30;;;10.13;;
35074;SDS011;21260;34.984;32.490;2022-12-18T07:53:29;14.13;;;10.27;;
35074;SDS011;21260;34.984;32.490;2022-12-18T07:55:57;13.40;;;9.87;;
35074;SDS011;21260;34.984;32.490;2022-12-18T07:58:26;11.60;;;10.13;;
35074;SDS011;21260;34.984;32.490;2022-12-18T08:00:52;11.93;;;10.33;;
35074;SDS011;21260;34.984;32.490;2022-12-18T08:03:19;13.83;;;10.53;;
35074;SDS011;21260;34.984;32.490;2022-12-18T08:05:45;12.50;;;11.20;;
35074;SDS011;21260;34.984;32.490;2022-12-18T08:08:14;11.60;;;10.10;;
35074;SDS011;21260;34.984;32.490;2022-12-18T08:10:40;14.23;;;11.17;;
35074;SDS011;21260;34.984;32.490;2022-12-18T08:13:06;12.53;;;10.27;;
35074;SDS011;21260;34.984;32.490;2022-12-18T08:15:33;11.87;;;10.50;;
35074;SDS011;21260;34.984;32.490;2022-12-18T08:17:59;13.27;;;10.70;;
35074;SDS011;21260;34.984;32.490;2022-12-18T08:20:25;12.43;;;10.70;;
35074;SDS011;21260;34.984;32.490;2022-12-18T08:22:51;13.87;;;10.33;;
35074;SDS011;21260;34.984;32.490;2022-12-18T08:25:19;14.23;;;10.10;;
35074;SDS011;21260;34.984;32.490;2022-12-18T08:27:45;11.50;;;9.83;;
35074;SDS011;21260;34.984;32.490;2022-12-18T08:30:11;11.27;;;10.07;;
35074;SDS011;21260;34.984;32.490;2022-12-18T08:32:38;14.17;;;9.30;;
35074;SDS011;21260;34.984;32.490;2022-12-18T08:35:04;11.67;;;9.20;;
35074;SDS011;21260;34.984;32.490;2022-12-18T08:37:31;11.87;;;9.87;;
35074;SDS011;21260;34.984;32.490;2022-12-18T08:39:58;14.03;;;9.47;;
35074;SDS011;21260;34.984;32.490;2022-12-18T08:42:24;10.97;;;8.93;;
35074;SDS011;21260;34.984;32.490;2022-12-18T08:45:09;11.53;;;9.77;;
35074;SDS011;21260;34.984;32.490;2022-12-18T08:47:36;12.83;;;9.47;;
35074;SDS011;21260;34.984;32.490;2022-12-18T08:50:02;10.53;;;9.23;;
35074;SDS011;21260;34.984;32.490;2022-12-18T08:52:30;13.50;;;10.20;;
35074;SDS011;21260;34.984;32.490;2022-12-18T08:54:58;10.60;;;9.50;;
35074;SDS011;21260;34.984;32.490;2022-12-18T08:57:24;12.00;;;9.20;;
35074;SDS011;21260;34.984;32.490;2022-12-18T08:59:50;11.53;;;9.50;;
35074;SDS011;21260;34.984;32.490;2022-12-18T09:02:17;11.43;;;10.20;;
35074;SDS011;21260;34.984;32.490;2022-12-18T09:04:43;10.53;;;9.40;;
35074;SDS011;21260;34.984;32.490;2022-12-18T09:07:13;11.57;;;10.30;;
35074;SDS011;21260;34.984;32.490;2022-12-18T09:09:39;11.80;;;10.57;;
35074;SDS011;21260;34.984;32.490;2022-12-18T09:12:06;11.83;;;10.43;;
35074;SDS011;21260;34.984;32.490;2022-12-18T09:14:33;15.27;;;11.63;;
35074;SDS011;21260;34.984;32.490;2022-12-18T09:16:59;14.20;;;11.97;;
35074;SDS011;21260;34.984;32.490;2022-12-18T09:19:25;14.83;;;11.30;;
35074;SDS011;21260;34.984;32.490;2022-12-18T09:21:51;14.90;;;12.47;;
35074;SDS011;21260;34.984;32.490;2022-12-18T09:24:18;15.87;;;12.80;;
35074;SDS011;21260;34.984;32.490;2022-12-18T09:26:44;17.77;;;12.17;;
35074;SDS011;21260;34.984;32.490;2022-12-18T09:29:10;14.20;;;12.43;;
35074;SDS011;21260;34.984;32.490;2022-12-18T09:31:37;17.57;;;13.47;;
35074;SDS011;21260;34.984;32.490;2022-12-18T09:34:04;16.83;;;13.07;;
35074;SDS011;21260;34.984;32.490;2022-12-18T09:36:31;16.13;;;13.30;;
35074;SDS011;21260;34.984;32.490;2022-12-18T09:38:57;16.53;;;12.67;;
35074;SDS011;21260;34.984;32.490;2022-12-18T09:41:33;13.37;;;12.03;;
35074;SDS011;21260;34.984;32.490;2022-12-18T09:44:18;14.47;;;12.33;;
35074;SDS011;21260;34.984;32.490;2022-12-18T09:52:54;13.90;;;11.90;;
35074;SDS011;21260;34.984;32.490;2022-12-18T09:55:30;12.10;;;10.80;;
35074;SDS011;21260;34.984;32.490;2022-12-18T10:01:00;10.40;;;9.30;;
35074;SDS011;21260;34.984;32.490;2022-12-18T10:03:26;10.23;;;9.13;;
35074;SDS011;21260;34.984;32.490;2022-12-18T10:08:56;9.80;;;8.80;;
35074;SDS011;21260;34.984;32.490;2022-12-18T10:12:22;11.03;;;8.70;;
35074;SDS011;21260;34.984;32.490;2022-12-18T10:18:01;10.50;;;8.60;;
35074;SDS011;21260;34.984;32.490;2022-12-18T10:20:48;11.90;;;9.63;;
35074;SDS011;21260;34.984;32.490;2022-12-18T10:23:27;10.30;;;9.17;;
35074;SDS011;21260;34.984;32.490;2022-12-18T10:26:06;12.67;;;9.33;;
35074;SDS011;21260;34.984;32.490;2022-12-18T10:28:39;10.27;;;9.03;;
35074;SDS011;21260;34.984;32.490;2022-12-18T10:31:11;13.00;;;9.33;;
35074;SDS011;21260;34.984;32.490;2022-12-18T10:33:49;9.70;;;8.63;;
35074;SDS011;21260;34.984;32.490;2022-12-18T10:36:18;12.33;;;8.97;;
35074;SDS011;21260;34.984;32.490;2022-12-18T10:38:45;17.50;;;9.27;;
35074;SDS011;21260;34.984;32.490;2022-12-18T10:43:47;10.53;;;8.73;;
35074;SDS011;21260;34.984;32.490;2022-12-18T10:46:17;10.33;;;9.23;;
35074;SDS011;21260;34.984;32.490;2022-12-18T10:51:19;9.67;;;8.67;;
35074;SDS011;21260;34.984;32.490;2022-12-18T10:54:03;12.87;;;8.77;;
35074;SDS011;21260;34.984;32.490;2022-12-18T10:56:43;9.33;;;8.33;;
35074;SDS011;21260;34.984;32.490;2022-12-18T10:59:10;11.10;;;8.83;;
35074;SDS011;21260;34.984;32.490;2022-12-18T11:01:52;12.10;;;8.53;;
35074;SDS011;21260;34.984;32.490;2022-12-18T11:04:27;11.87;;;8.93;;
35074;SDS011;21260;34.984;32.490;2022-12-18T11:07:00;10.40;;;8.13;;
35074;SDS011;21260;34.984;32.490;2022-12-18T11:09:38;9.37;;;7.83;;
35074;SDS011;21260;34.984;32.490;2022-12-18T11:12:14;8.50;;;7.60;;
35074;SDS011;21260;34.984;32.490;2022-12-18T11:14:53;9.02;;;7.75;;
35074;SDS011;21260;34.984;32.490;2022-12-18T11:17:28;9.55;;;8.13;;
35074;SDS011;21260;34.984;32.490;2022-12-18T11:20:01;8.57;;;7.60;;
35074;SDS011;21260;34.984;32.490;2022-12-18T11:22:33;9.95;;;8.25;;
35074;SDS011;21260;34.984;32.490;2022-12-18T11:25:07;9.38;;;8.00;;
35074;SDS011;21260;34.984;32.490;2022-12-18T11:27:52;11.32;;;8.20;;
35074;SDS011;21260;34.984;32.490;2022-12-18T11:30:24;9.07;;;7.75;;
35074;SDS011;21260;34.984;32.490;2022-12-18T11:35:44;14.05;;;7.93;;
35074;SDS011;21260;34.984;32.490;2022-12-18T11:38:22;9.87;;;8.87;;
35074;SDS011;21260;34.984;32.490;2022-12-18T11:41:02;8.63;;;7.73;;
35074;SDS011;21260;34.984;32.490;2022-12-18T11:43:44;10.17;;;8.80;;
35074;SDS011;21260;34.984;32.490;2022-12-18T11:46:27;9.10;;;7.53;;
35074;SDS011;21260;34.984;32.490;2022-12-18T11:49:12;12.63;;;8.80;;
35074;SDS011;21260;34.984;32.490;2022-12-18T11:51:58;14.03;;;8.23;;
35074;SDS011;21260;34.984;32.490;2022-12-18T11:54:52;9.63;;;7.90;;
35074;SDS011;21260;34.984;32.490;2022-12-18T11:57:31;8.03;;;7.03;;
35074;SDS011;21260;34.984;32.490;2022-12-18T12:00:15;9.80;;;7.67;;
35074;SDS011;21260;34.984;32.490;2022-12-18T12:16:59;9.30;;;8.30;;
35074;SDS011;21260;34.984;32.490;2022-12-18T12:27:58;11.33;;;8.37;;
35074;SDS011;21260;34.984;32.490;2022-12-18T12:34:02;11.07;;;8.00;;
35074;SDS011;21260;34.984;32.490;2022-12-18T12:38:59;9.93;;;8.07;;
35074;SDS011;21260;34.984;32.490;2022-12-18T12:41:33;9.33;;;8.00;;
35074;SDS011;21260;34.984;32.490;2022-12-18T12:44:28;12.50;;;8.00;;
35074;SDS011;21260;34.984;32.490;2022-12-18T12:47:22;9.60;;;8.43;;
35074;SDS011;21260;34.984;32.490;2022-12-18T12:50:04;11.23;;;8.07;;
35074;SDS011;21260;34.984;32.490;2022-12-18T12:52:42;10.33;;;8.57;;
35074;SDS011;21260;34.984;32.490;2022-12-18T12:55:16;11.07;;;8.40;;
35074;SDS011;21260;34.984;32.490;2022-12-18T13:06:33;11.93;;;9.10;;
35074;SDS011;21260;34.984;32.490;2022-12-18T13:09:22;10.10;;;8.73;;
35074;SDS011;21260;34.984;32.490;2022-12-18T13:11:48;12.23;;;8.87;;
35074;SDS011;21260;34.984;32.490;2022-12-18T13:19:52;10.70;;;8.60;;
35074;SDS011;21260;34.984;32.490;2022-12-18T13:22:36;10.87;;;8.63;;
35074;SDS011;21260;34.984;32.490;2022-12-18T13:30:47;12.07;;;8.40;;
35074;SDS011;21260;34.984;32.490;2022-12-18T13:33:36;10.73;;;8.40;;
35074;SDS011;21260;34.984;32.490;2022-12-18T13:36:13;10.90;;;9.10;;
35074;SDS011;21260;34.984;32.490;2022-12-18T13:41:43;10.20;;;9.03;;
35074;SDS011;21260;34.984;32.490;2022-12-18T13:44:17;9.23;;;8.33;;
35074;SDS011;21260;34.984;32.490;2022-12-18T13:49:59;9.73;;;8.73;;
35074;SDS011;21260;34.984;32.490;2022-12-18T13:52:35;9.83;;;8.27;;
35074;SDS011;21260;34.984;32.490;2022-12-18T13:55:06;11.67;;;8.50;;
35074;SDS011;21260;34.984;32.490;2022-12-18T13:57:43;12.27;;;9.30;;
35074;SDS011;21260;34.984;32.490;2022-12-18T14:02:49;8.90;;;8.00;;
35074;SDS011;21260;34.984;32.490;2022-12-18T14:05:23;9.17;;;8.27;;
35074;SDS011;21260;34.984;32.490;2022-12-18T14:07:51;9.73;;;8.73;;
35074;SDS011;21260;34.984;32.490;2022-12-18T14:10:21;13.20;;;8.70;;
35074;SDS011;21260;34.984;32.490;2022-12-18T14:12:49;14.00;;;8.57;;
35074;SDS011;21260;34.984;32.490;2022-12-18T14:17:52;10.63;;;8.40;;
35074;SDS011;21260;34.984;32.490;2022-12-18T14:20:22;11.70;;;8.53;;
35074;SDS011;21260;34.984;32.490;2022-12-18T14:22:52;14.30;;;8.23;;
35074;SDS011;21260;34.984;32.490;2022-12-18T14:27:52;10.33;;;8.10;;
35074;SDS011;21260;34.984;32.490;2022-12-18T14:30:43;13.90;;;8.60;;
35074;SDS011;21260;34.984;32.490;2022-12-18T14:33:12;9.23;;;8.13;;
35074;SDS011;21260;34.984;32.490;2022-12-18T14:35:55;13.20;;;9.30;;
35074;SDS011;21260;34.984;32.490;2022-12-18T14:41:00;10.87;;;8.67;;
35074;SDS011;21260;34.984;32.490;2022-12-18T14:43:29;11.27;;;8.70;;
35074;SDS011;21260;34.984;32.490;2022-12-18T14:46:02;11.60;;;8.40;;
35074;SDS011;21260;34.984;32.490;2022-12-18T14:48:55;12.50;;;9.37;;
35074;SDS011;21260;34.984;32.490;2022-12-18T14:51:23;15.13;;;9.37;;
35074;SDS011;21260;34.984;32.490;2022-12-18T14:53:55;11.30;;;9.27;;
35074;SDS011;21260;34.984;32.490;2022-12-18T14:56:35;13.90;;;10.37;;
35074;SDS011;21260;34.984;32.490;2022-12-18T14:59:16;12.27;;;10.30;;
35074;SDS011;21260;34.984;32.490;2022-12-18T15:04:45;9.50;;;8.50;;
35074;SDS011;21260;34.984;32.490;2022-12-18T15:18:11;8.20;;;7.30;;
35074;SDS011;21260;34.984;32.490;2022-12-18T15:20:49;9.77;;;7.67;;
35074;SDS011;21260;34.984;32.490;2022-12-18T15:23:23;10.70;;;6.90;;
35074;SDS011;21260;34.984;32.490;2022-12-18T15:25:57;11.50;;;6.87;;
35074;SDS011;21260;34.984;32.490;2022-12-18T15:28:46;9.27;;;7.40;;
35074;SDS011;21260;34.984;32.490;2022-12-18T15:31:22;11.77;;;8.20;;
35074;SDS011;21260;34.984;32.490;2022-12-18T15:34:01;11.50;;;8.37;;
35074;SDS011;21260;34.984;32.490;2022-12-18T15:36:37;15.20;;;8.27;;
35074;SDS011;21260;34.984;32.490;2022-12-18T15:39:03;9.73;;;7.87;;
35074;SDS011;21260;34.984;32.490;2022-12-18T15:41:31;7.67;;;6.87;;
35074;SDS011;21260;34.984;32.490;2022-12-18T15:44:00;8.93;;;6.83;;
35074;SDS011;21260;34.984;32.490;2022-12-18T15:46:26;9.37;;;6.67;;
35074;SDS011;21260;34.984;32.490;2022-12-18T15:48:54;8.83;;;7.17;;
35074;SDS011;21260;34.984;32.490;2022-12-18T15:51:29;12.23;;;7.83;;
35074;SDS011;21260;34.984;32.490;2022-12-18T15:54:01;12.00;;;9.17;;
35074;SDS011;21260;34.984;32.490;2022-12-18T15:56:31;12.40;;;10.87;;
35074;SDS011;21260;34.984;32.490;2022-12-18T15:59:17;16.43;;;10.63;;
35074;SDS011;21260;34.984;32.490;2022-12-18T16:01:49;10.70;;;9.60;;
35074;SDS011;21260;34.984;32.490;2022-12-18T16:04:20;17.20;;;10.20;;
35074;SDS011;21260;34.984;32.490;2022-12-18T16:06:49;13.53;;;9.80;;
35074;SDS011;21260;34.984;32.490;2022-12-18T16:09:16;16.50;;;9.97;;
35074;SDS011;21260;34.984;32.490;2022-12-18T16:11:43;15.13;;;11.43;;
35074;SDS011;21260;34.984;32.490;2022-12-18T16:14:15;16.53;;;12.73;;
35074;SDS011;21260;34.984;32.490;2022-12-18T16:16:50;13.67;;;11.27;;
35074;SDS011;21260;34.984;32.490;2022-12-18T16:19:20;15.90;;;10.40;;
35074;SDS011;21260;34.984;32.490;2022-12-18T16:21:46;12.90;;;9.77;;
35074;SDS011;21260;34.984;32.490;2022-12-18T16:24:20;11.63;;;9.57;;
35074;SDS011;21260;34.984;32.490;2022-12-18T16:26:49;12.17;;;9.73;;
35074;SDS011;21260;34.984;32.490;2022-12-18T16:29:17;17.37;;;10.10;;
35074;SDS011;21260;34.984;32.490;2022-12-18T16:31:50;17.10;;;9.90;;
35074;SDS011;21260;34.984;32.490;2022-12-18T16:34:21;12.77;;;10.20;;
35074;SDS011;21260;34.984;32.490;2022-12-18T16:36:56;12.60;;;10.50;;
35074;SDS011;21260;34.984;32.490;2022-12-18T16:39:27;13.00;;;10.30;;
35074;SDS011;21260;34.984;32.490;2022-12-18T16:41:55;15.30;;;10.30;;
35074;SDS011;21260;34.984;32.490;2022-12-18T16:44:23;16.23;;;11.53;;
35074;SDS011;21260;34.984;32.490;2022-12-18T16:46:49;12.83;;;10.57;;
35074;SDS011;21260;34.984;32.490;2022-12-18T16:49:16;14.70;;;10.93;;
35074;SDS011;21260;34.984;32.490;2022-12-18T16:51:47;12.60;;;10.37;;
35074;SDS011;21260;34.984;32.490;2022-12-18T16:54:13;12.07;;;9.23;;
35074;SDS011;21260;34.984;32.490;2022-12-18T16:56:40;11.17;;;9.17;;
35074;SDS011;21260;34.984;32.490;2022-12-18T16:59:07;12.47;;;10.00;;
35074;SDS011;21260;34.984;32.490;2022-12-18T17:01:36;13.00;;;8.97;;
35074;SDS011;21260;34.984;32.490;2022-12-18T17:04:04;10.37;;;9.00;;
35074;SDS011;21260;34.984;32.490;2022-12-18T17:06:32;11.17;;;9.37;;
35074;SDS011;21260;34.984;32.490;2022-12-18T17:09:02;12.27;;;8.67;;
35074;SDS011;21260;34.984;32.490;2022-12-18T17:11:32;14.17;;;8.77;;
35074;SDS011;21260;34.984;32.490;2022-12-18T17:14:04;13.53;;;8.43;;